Time;durP1;ratioP1;P1;durP2;ratioP2;P2;SDS_P1;SDS_P2;PMS_P1;PMS_P2;Temp;Humidity;BMP_temperature;BMP_pressure;BME280_temperature;BME280_humidity;BME280_pressure;Samples;Min_cycle;Max_cycle;Signal;HPM_P1;HPM_P2
2023/01/12 00:03:11;;;;;;;7.63;2.03;;;7.90;99.90;;;;;;10472993;28;20239;-74
2023/01/12 00:08:11;;;;;;;8.90;2.30;;;8.10;99.90;;;;;;10472751;28;20249;-74
2023/01/12 00:13:12;;;;;;;12.43;2.50;;;8.10;99.90;;;;;;10481496;28;20688;-73
2023/01/12 00:18:13;;;;;;;11.23;2.27;;;8.20;99.90;;;;;;10464214;28;20240;-74
2023/01/12 00:23:13;;;;;;;10.33;2.03;;;8.30;99.90;;;;;;10474627;28;20779;-75
2023/01/12 00:28:14;;;;;;;8.07;2.83;;;8.30;99.90;;;;;;10472961;28;20742;-75
2023/01/12 00:33:14;;;;;;;8.53;2.43;;;8.40;99.90;;;;;;10470543;28;20232;-75
2023/01/12 00:38:15;;;;;;;12.17;2.40;;;8.40;99.90;;;;;;10471613;28;20246;-73
2023/01/12 00:48:34;;;;;;;9.57;2.20;;;8.40;99.90;;;;;;10474012;28;20223;-76
2023/01/12 00:53:35;;;;;;;12.43;2.67;;;8.30;99.90;;;;;;10490667;28;20700;-78
2023/01/12 00:58:35;;;;;;;12.73;2.40;;;8.30;99.90;;;;;;10482920;28;20237;-75
2023/01/12 01:03:36;;;;;;;10.10;2.10;;;8.20;99.90;;;;;;10464980;28;20346;-77
2023/01/12 01:08:37;;;;;;;12.67;2.40;;;8.20;99.90;;;;;;10481603;28;20252;-76
2023/01/12 01:13:42;;;;;;;10.13;2.50;;;8.30;99.90;;;;;;10484006;28;20220;-72
2023/01/12 01:18:43;;;;;;;7.97;2.17;;;8.30;99.90;;;;;;10464327;28;20220;-72
2023/01/12 01:23:44;;;;;;;11.50;1.90;;;8.30;99.90;;;;;;10474007;28;20221;-72
2023/01/12 01:28:45;;;;;;;12.13;3.23;;;8.30;99.90;;;;;;10481831;28;20226;-73
2023/01/12 01:33:46;;;;;;;9.70;2.50;;;8.30;99.90;;;;;;10459813;28;20218;-76
2023/01/12 01:38:48;;;;;;;10.70;2.40;;;8.30;99.90;;;;;;10455733;28;20231;-76
2023/01/12 01:43:54;;;;;;;10.37;2.70;;;8.30;99.90;;;;;;10481175;28;20218;-74
2023/01/12 01:48:55;;;;;;;12.93;2.97;;;8.30;99.90;;;;;;10471309;28;20272;-71
2023/01/12 01:53:56;;;;;;;12.47;2.30;;;8.30;99.90;;;;;;10461464;28;20217;-71
2023/01/12 01:59:04;;;;;;;9.90;2.20;;;8.40;99.90;;;;;;10474199;28;20224;-74
2023/01/12 02:04:05;;;;;;;13.47;2.30;;;8.40;99.90;;;;;;10484939;28;20245;-74
2023/01/12 02:09:17;;;;;;;10.40;2.30;;;8.40;99.90;;;;;;10484798;28;20298;-71
2023/01/12 02:19:48;;;;;;;11.43;2.60;;;8.40;99.90;;;;;;10470376;28;20223;-74
2023/01/12 02:25:26;;;;;;;10.93;2.20;;;8.50;99.90;;;;;;10480850;28;20599;-78
2023/01/12 02:30:30;;;;;;;8.73;2.43;;;8.50;99.90;;;;;;10474885;28;20241;-76
2023/01/12 02:36:03;;;;;;;10.30;2.60;;;8.50;99.90;;;;;;10462234;28;20229;-76
2023/01/12 02:46:59;;;;;;;13.67;3.03;;;8.50;99.90;;;;;;10487485;28;20701;-74
2023/01/12 02:52:07;;;;;;;9.87;2.50;;;8.50;99.90;;;;;;10494506;28;20274;-73
2023/01/12 02:57:09;;;;;;;10.60;2.50;;;8.50;99.90;;;;;;10494820;28;20218;-73
2023/01/12 03:02:15;;;;;;;10.53;2.30;;;8.50;99.90;;;;;;10456269;28;20222;-71
2023/01/12 03:07:49;;;;;;;10.53;2.77;;;8.50;99.90;;;;;;10456957;28;20221;-72
2023/01/12 03:12:52;;;;;;;8.53;2.40;;;8.50;99.90;;;;;;10494290;28;20230;-75
2023/01/12 03:18:12;;;;;;;12.27;2.63;;;8.50;99.90;;;;;;10460755;28;20234;-72
2023/01/12 03:23:40;;;;;;;12.20;2.80;;;8.50;99.90;;;;;;10475044;28;20218;-72
2023/01/12 03:28:45;;;;;;;10.17;2.20;;;8.60;99.90;;;;;;10494354;28;20275;-72
2023/01/12 03:33:46;;;;;;;14.97;3.20;;;8.60;99.90;;;;;;10469995;28;20223;-73
2023/01/12 03:39:11;;;;;;;11.57;2.30;;;8.60;99.90;;;;;;10476947;28;20274;-76
2023/01/12 03:44:33;;;;;;;11.73;2.33;;;8.60;99.90;;;;;;10484299;28;20221;-76
2023/01/12 03:49:42;;;;;;;14.03;2.83;;;8.60;99.90;;;;;;10494231;28;20243;-76
2023/01/12 03:54:46;;;;;;;9.33;2.23;;;8.60;99.90;;;;;;10461541;28;20758;-72
2023/01/12 03:59:49;;;;;;;11.87;2.87;;;8.70;99.90;;;;;;10476248;28;20310;-71
2023/01/12 04:04:50;;;;;;;13.83;2.50;;;8.60;99.90;;;;;;10477918;28;20228;-72
2023/01/12 04:09:50;;;;;;;14.20;2.67;;;8.70;99.90;;;;;;10460306;28;20233;-72
2023/01/12 04:14:51;;;;;;;13.33;2.93;;;8.70;99.90;;;;;;10494006;28;20223;-78
2023/01/12 04:19:52;;;;;;;9.73;2.70;;;8.70;99.90;;;;;;10481640;28;20800;-78
2023/01/12 04:24:52;;;;;;;13.83;2.40;;;8.70;99.90;;;;;;10493416;28;20259;-79
2023/01/12 04:29:53;;;;;;;10.17;2.70;;;8.70;99.90;;;;;;10471610;28;20226;-71
2023/01/12 04:34:54;;;;;;;12.07;2.53;;;8.70;99.90;;;;;;10463968;28;20643;-72
2023/01/12 04:39:54;;;;;;;9.50;2.67;;;8.80;99.90;;;;;;10483164;28;20872;-71
2023/01/12 04:44:55;;;;;;;14.53;2.70;;;8.70;99.90;;;;;;10500109;28;20342;-72
2023/01/12 04:49:55;;;;;;;11.37;2.63;;;8.80;99.90;;;;;;10495768;28;20221;-72
2023/01/12 04:54:56;;;;;;;9.93;2.37;;;8.80;99.90;;;;;;10482485;28;20230;-72
2023/01/12 04:59:56;;;;;;;12.60;2.50;;;8.80;99.90;;;;;;10478230;28;20410;-71
2023/01/12 05:04:57;;;;;;;10.80;2.60;;;8.90;99.90;;;;;;10485900;28;20272;-73
2023/01/12 05:15:16;;;;;;;9.90;2.60;;;9.00;99.90;;;;;;10466472;28;20222;-72
2023/01/12 05:20:20;;;;;;;12.00;2.13;;;9.10;99.90;;;;;;10471949;28;20641;-74
2023/01/12 05:25:21;;;;;;;14.13;3.43;;;9.10;99.90;;;;;;10483548;28;20281;-74
2023/01/12 05:30:21;;;;;;;12.13;2.63;;;9.10;99.90;;;;;;10474369;28;20297;-73
2023/01/12 05:35:22;;;;;;;13.53;2.53;;;9.10;99.90;;;;;;10485009;28;20192;-75
2023/01/12 05:40:23;;;;;;;9.37;2.60;;;9.20;99.90;;;;;;10480790;28;20222;-72
2023/01/12 05:45:24;;;;;;;14.57;3.53;;;9.10;99.90;;;;;;10498804;28;20198;-69
2023/01/12 05:50:24;;;;;;;9.40;2.63;;;9.10;99.90;;;;;;10463167;28;20234;-68
2023/01/12 05:55:25;;;;;;;8.83;2.47;;;9.20;99.90;;;;;;10495375;28;20278;-70
2023/01/12 06:00:26;;;;;;;11.33;2.97;;;9.20;99.90;;;;;;10488690;28;20221;-72
2023/01/12 06:05:26;;;;;;;9.57;2.10;;;9.20;99.90;;;;;;10466461;28;20267;-71
2023/01/12 06:10:27;;;;;;;10.30;2.37;;;9.30;99.90;;;;;;10460599;28;20241;-70
2023/01/12 06:15:30;;;;;;;6.10;1.97;;;9.30;99.90;;;;;;10491611;28;20274;-72
2023/01/12 06:20:31;;;;;;;9.47;2.70;;;9.30;99.90;;;;;;10459040;28;20216;-71
2023/01/12 06:25:32;;;;;;;9.77;2.93;;;9.30;99.90;;;;;;10454332;28;20223;-68
2023/01/12 06:30:32;;;;;;;11.53;2.40;;;9.40;99.90;;;;;;10468014;28;20235;-68
2023/01/12 06:35:33;;;;;;;7.03;2.10;;;9.30;99.90;;;;;;10472587;28;20219;-69
2023/01/12 06:40:36;;;;;;;8.50;2.10;;;9.30;99.90;;;;;;10449953;28;20244;-69
2023/01/12 06:45:37;;;;;;;10.33;2.00;;;9.30;99.90;;;;;;10481544;28;20361;-69
2023/01/12 06:50:40;;;;;;;8.07;2.30;;;9.30;99.90;;;;;;10473481;28;20328;-69
2023/01/12 06:55:48;;;;;;;11.37;2.07;;;9.30;99.90;;;;;;10466164;28;20368;-69
2023/01/12 07:00:49;;;;;;;10.87;1.80;;;9.30;99.90;;;;;;10454428;28;20368;-70
2023/01/12 07:05:50;;;;;;;8.97;2.00;;;9.30;99.90;;;;;;10458333;28;20241;-69
2023/01/12 07:10:50;;;;;;;7.43;2.00;;;9.20;99.90;;;;;;10469049;28;20600;-68
2023/01/12 07:15:51;;;;;;;11.33;2.47;;;9.20;99.90;;;;;;10450231;28;20222;-68
2023/01/12 07:20:52;;;;;;;13.43;2.83;;;9.20;99.90;;;;;;10472006;28;20231;-69
2023/01/12 07:25:55;;;;;;;5.67;1.90;;;9.30;99.90;;;;;;10469531;28;20581;-69
2023/01/12 07:31:00;;;;;;;8.70;2.20;;;9.30;99.90;;;;;;10472384;28;20291;-70
2023/01/12 07:36:01;;;;;;;11.13;2.37;;;9.30;99.90;;;;;;10454325;28;20314;-70
2023/01/12 07:41:03;;;;;;;8.43;1.90;;;9.40;99.90;;;;;;10478548;28;20225;-70
2023/01/12 07:46:03;;;;;;;8.57;2.07;;;9.30;99.90;;;;;;10456528;28;20226;-69
2023/01/12 07:51:04;;;;;;;8.30;2.17;;;9.40;99.90;;;;;;10478739;28;20276;-68
2023/01/12 07:56:05;;;;;;;8.00;1.90;;;9.40;99.90;;;;;;10493283;28;20228;-69
2023/01/12 08:01:05;;;;;;;11.63;2.00;;;9.40;99.90;;;;;;10487894;28;20228;-69
2023/01/12 08:06:06;;;;;;;6.40;2.10;;;9.30;99.90;;;;;;10473183;28;20227;-70
2023/01/12 08:11:09;;;;;;;9.03;2.00;;;9.30;99.90;;;;;;10480065;28;20321;-69
2023/01/12 08:16:21;;;;;;;10.77;2.20;;;9.30;99.90;;;;;;10486828;28;20298;-69
2023/01/12 08:21:27;;;;;;;11.47;2.13;;;9.20;99.90;;;;;;10474149;28;20218;-68
2023/01/12 08:26:35;;;;;;;11.77;2.20;;;9.20;99.90;;;;;;10479961;28;20223;-69
2023/01/12 08:31:36;;;;;;;9.40;2.10;;;9.20;99.90;;;;;;10476384;28;20230;-70
2023/01/12 08:36:40;;;;;;;9.53;2.33;;;9.20;99.90;;;;;;10472876;28;20229;-70
2023/01/12 08:41:41;;;;;;;7.70;1.83;;;9.20;99.90;;;;;;10476488;28;20221;-70
2023/01/12 08:46:52;;;;;;;7.33;1.73;;;9.30;99.90;;;;;;10480134;28;20211;-70
2023/01/12 08:51:52;;;;;;;7.70;1.53;;;9.30;99.90;;;;;;10469258;28;20280;-71
2023/01/12 08:56:53;;;;;;;6.10;1.50;;;9.40;99.90;;;;;;10480764;28;20636;-70
2023/01/12 09:01:54;;;;;;;5.23;1.33;;;9.40;99.90;;;;;;10483428;28;20257;-69
2023/01/12 09:06:55;;;;;;;3.13;1.20;;;9.50;99.90;;;;;;10477596;28;20234;-70
2023/01/12 09:11:55;;;;;;;7.70;1.53;;;9.50;99.90;;;;;;10475010;28;20752;-70
2023/01/12 09:16:56;;;;;;;4.07;1.40;;;9.50;99.90;;;;;;10471557;28;20338;-69
2023/01/12 09:21:56;;;;;;;4.13;1.23;;;9.50;99.90;;;;;;10474609;28;20222;-71
2023/01/12 09:26:58;;;;;;;8.43;1.50;;;9.50;99.90;;;;;;10452963;28;20219;-71
2023/01/12 09:31:59;;;;;;;6.33;1.33;;;9.50;99.90;;;;;;10474119;28;20234;-69
2023/01/12 09:37:00;;;;;;;5.60;1.30;;;9.60;99.90;;;;;;10470725;28;20309;-70
2023/01/12 09:47:39;;;;;;;4.70;1.03;;;9.60;99.90;;;;;;10468865;28;20223;-70
2023/01/12 09:52:44;;;;;;;4.10;1.23;;;9.60;99.90;;;;;;10454276;28;20230;-70
2023/01/12 09:58:03;;;;;;;2.13;1.23;;;9.80;99.90;;;;;;10449255;28;20237;-69
2023/01/12 10:03:06;;;;;;;5.27;1.20;;;9.80;99.90;;;;;;10498691;28;20265;-68
2023/01/12 10:08:21;;;;;;;3.90;1.20;;;9.90;99.90;;;;;;10468502;28;20870;-71
2023/01/12 10:13:24;;;;;;;4.23;1.33;;;10.00;99.90;;;;;;10449481;28;20250;-70
2023/01/12 10:18:39;;;;;;;6.27;1.40;;;10.00;99.90;;;;;;10473440;28;20353;-70
2023/01/12 10:23:41;;;;;;;4.40;1.53;;;10.10;99.90;;;;;;10476814;28;20222;-71
2023/01/12 10:28:45;;;;;;;5.80;1.70;;;10.10;99.90;;;;;;10469955;28;20758;-70
2023/01/12 10:34:07;;;;;;;4.77;1.60;;;10.10;99.90;;;;;;10469396;28;20215;-70
2023/01/12 10:39:29;;;;;;;3.97;1.33;;;10.20;99.90;;;;;;10476113;28;20223;-70
2023/01/12 10:44:30;;;;;;;4.00;1.00;;;10.40;99.90;;;;;;10450506;28;20214;-70
2023/01/12 10:49:30;;;;;;;6.23;1.33;;;10.40;99.90;;;;;;10471376;28;20219;-68
2023/01/12 10:54:35;;;;;;;3.53;0.70;;;10.40;99.90;;;;;;10448807;28;20227;-70
2023/01/12 10:59:38;;;;;;;3.03;0.90;;;10.40;99.90;;;;;;10472571;28;20343;-70
2023/01/12 11:04:40;;;;;;;2.97;1.13;;;10.40;99.90;;;;;;10471963;28;20320;-70
2023/01/12 11:09:42;;;;;;;6.73;1.23;;;10.30;99.90;;;;;;10477088;28;20234;-70
2023/01/12 11:14:57;;;;;;;3.03;0.70;;;10.40;99.90;;;;;;10445499;28;20230;-70
2023/01/12 11:20:01;;;;;;;4.83;1.03;;;10.40;99.90;;;;;;10460181;28;20358;-70
2023/01/12 11:25:05;;;;;;;6.63;1.23;;;10.50;99.90;;;;;;10465448;28;20247;-70
2023/01/12 11:30:31;;;;;;;4.23;1.00;;;10.60;99.90;;;;;;10446314;28;20235;-69
2023/01/12 11:35:58;;;;;;;0.97;0.40;;;10.60;99.90;;;;;;10466503;28;20211;-71
2023/01/12 11:40:58;;;;;;;1.23;0.53;;;10.70;99.90;;;;;;10467218;28;20230;-71
2023/01/12 11:46:28;;;;;;;2.67;0.50;;;10.80;99.90;;;;;;10470968;28;20251;-69
2023/01/12 11:51:29;;;;;;;0.50;0.37;;;11.00;99.90;;;;;;10459286;28;20232;-70
2023/01/12 11:57:01;;;;;;;0.97;0.40;;;11.20;99.90;;;;;;10470701;28;20234;-70
2023/01/12 12:02:32;;;;;;;1.97;0.47;;;11.20;99.90;;;;;;10470197;28;20693;-70
2023/01/12 12:07:49;;;;;;;1.33;0.50;;;11.20;99.90;;;;;;10465732;28;20219;-70
2023/01/12 12:13:05;;;;;;;1.40;0.30;;;11.10;99.90;;;;;;10485186;28;20229;-69
2023/01/12 12:18:35;;;;;;;3.40;0.50;;;10.90;99.90;;;;;;10464733;28;20215;-70
2023/01/12 12:24:00;;;;;;;1.10;0.40;;;10.90;99.90;;;;;;10478434;28;20222;-69
2023/01/12 12:29:20;;;;;;;0.30;0.30;;;10.90;99.90;;;;;;10476125;28;20223;-70
2023/01/12 12:34:41;;;;;;;0.60;0.33;;;10.80;99.90;;;;;;10460535;28;20249;-70
2023/01/12 12:39:54;;;;;;;0.67;0.30;;;10.80;99.90;;;;;;10488116;28;20362;-70
2023/01/12 12:45:16;;;;;;;1.63;0.40;;;10.80;99.90;;;;;;10474869;28;20226;-70
2023/01/12 12:50:29;;;;;;;2.40;0.30;;;10.90;99.90;;;;;;10477446;28;20219;-71
2023/01/12 12:55:31;;;;;;;2.33;0.40;;;10.90;99.90;;;;;;10471335;28;20817;-71
2023/01/12 13:00:45;;;;;;;0.73;0.20;;;11.00;99.90;;;;;;10473784;28;20213;-71
2023/01/12 13:05:47;;;;;;;1.80;0.43;;;10.90;99.90;;;;;;10479978;28;20223;-70
2023/01/12 13:10:56;;;;;;;3.50;0.40;;;11.00;99.90;;;;;;10484086;28;20215;-69
2023/01/12 13:16:26;;;;;;;4.23;1.57;;;10.90;99.90;;;;;;10465668;28;20914;-71
2023/01/12 13:21:42;;;;;;;1.53;0.60;;;10.90;99.90;;;;;;10469293;28;20212;-71
2023/01/12 13:26:44;;;;;;;0.70;0.30;;;10.90;99.90;;;;;;10473783;28;20218;-69
2023/01/12 13:31:44;;;;;;;0.47;0.23;;;10.90;99.90;;;;;;10470832;28;20380;-70
2023/01/12 13:37:14;;;;;;;0.30;0.30;;;10.90;99.90;;;;;;10454706;28;20567;-70
2023/01/12 13:47:42;;;;;;;0.80;0.27;;;11.00;99.90;;;;;;10471293;28;20218;-70
2023/01/12 13:52:43;;;;;;;0.47;0.10;;;11.10;99.90;;;;;;10472098;28;20224;-70
2023/01/12 13:58:15;;;;;;;0.40;0.17;;;11.00;99.90;;;;;;10468908;28;20269;-70
2023/01/12 14:03:31;;;;;;;1.43;0.37;;;11.00;99.90;;;;;;10466924;28;20227;-69
2023/01/12 14:08:31;;;;;;;1.33;0.10;;;11.00;99.90;;;;;;10470370;28;20581;-71
2023/01/12 14:13:47;;;;;;;0.90;0.37;;;10.90;99.90;;;;;;10458881;28;20220;-71
2023/01/12 14:18:48;;;;;;;0.23;0.20;;;10.90;99.90;;;;;;10452393;28;20226;-69
2023/01/12 14:23:49;;;;;;;1.13;0.40;;;10.90;99.90;;;;;;10482230;28;20229;-69
2023/01/12 14:28:51;;;;;;;0.33;0.20;;;10.90;99.90;;;;;;10451090;28;20223;-70
2023/01/12 14:33:54;;;;;;;0.33;0.30;;;10.90;99.90;;;;;;10452404;28;20277;-69
2023/01/12 14:38:57;;;;;;;0.87;0.40;;;10.90;99.90;;;;;;10469999;28;20219;-70
2023/01/12 14:49:29;;;;;;;1.70;0.50;;;10.80;99.90;;;;;;10464784;28;20231;-70
2023/01/12 14:54:33;;;;;;;1.77;0.50;;;10.70;99.90;;;;;;10466816;28;20281;-70
2023/01/12 14:59:37;;;;;;;1.23;0.40;;;10.70;99.90;;;;;;10475899;28;20699;-71
2023/01/12 15:05:03;;;;;;;0.77;0.40;;;10.60;99.90;;;;;;10460647;28;20223;-71
2023/01/12 15:10:12;;;;;;;1.10;0.37;;;10.60;99.90;;;;;;10464808;28;20225;-70
2023/01/12 15:25:34;;;;;;;1.07;0.50;;;10.60;99.90;;;;;;10480181;28;20233;-70
2023/01/12 15:26:10;;;;;;;1.13;0.30;;;10.60;99.90;;;;;;10464811;28;20221;-70
2023/01/12 15:31:17;;;;;;;2.33;0.70;;;10.50;99.90;;;;;;10471604;28;20237;-70
2023/01/12 15:36:18;;;;;;;0.40;0.40;;;10.60;99.90;;;;;;10473222;28;20559;-70
2023/01/12 15:46:47;;;;;;;0.43;0.33;;;10.60;99.90;;;;;;10472316;28;20372;-70
2023/01/12 15:51:49;;;;;;;0.73;0.30;;;10.50;99.90;;;;;;10472210;28;20241;-69
2023/01/12 15:56:52;;;;;;;1.73;0.43;;;10.50;99.90;;;;;;10473999;28;20230;-70
2023/01/12 16:01:53;;;;;;;0.40;0.30;;;10.50;99.90;;;;;;10470434;28;20223;-71
2023/01/12 16:06:54;;;;;;;1.33;0.63;;;10.60;99.90;;;;;;10476477;28;20223;-71
2023/01/12 16:11:54;;;;;;;1.10;0.23;;;10.60;99.90;;;;;;10479112;28;20713;-69
2023/01/12 16:16:55;;;;;;;0.33;0.20;;;10.60;99.90;;;;;;10490945;28;20227;-69
2023/01/12 16:21:56;;;;;;;0.40;0.30;;;10.60;99.90;;;;;;10459993;28;20758;-69
2023/01/12 16:26:56;;;;;;;0.70;0.50;;;10.50;99.90;;;;;;10474685;28;20228;-70
2023/01/12 16:31:57;;;;;;;2.53;0.40;;;10.50;99.90;;;;;;10472730;28;20229;-71
2023/01/12 16:36:57;;;;;;;0.40;0.30;;;10.50;99.90;;;;;;10455971;28;20307;-69
2023/01/12 16:42:04;;;;;;;1.53;0.50;;;10.50;99.90;;;;;;10452582;28;20242;-69
2023/01/12 16:47:16;;;;;;;0.73;0.50;;;10.50;99.90;;;;;;10477816;28;20214;-70
2023/01/12 16:52:19;;;;;;;0.50;0.40;;;10.50;99.90;;;;;;10489091;28;20238;-70
2023/01/12 16:57:20;;;;;;;0.73;0.30;;;10.60;99.90;;;;;;10452781;28;20272;-70
2023/01/12 17:02:21;;;;;;;0.83;0.50;;;10.60;99.90;;;;;;10478586;28;20241;-71
2023/01/12 17:07:22;;;;;;;1.30;0.43;;;10.60;99.90;;;;;;10470860;28;20216;-71
2023/01/12 17:12:22;;;;;;;0.50;0.50;;;10.60;99.90;;;;;;10459643;28;20277;-71
2023/01/12 17:17:23;;;;;;;2.93;0.57;;;10.50;99.90;;;;;;10459104;28;20225;-69
2023/01/12 17:22:24;;;;;;;1.30;0.70;;;10.50;99.90;;;;;;10467380;28;20306;-70
2023/01/12 17:27:27;;;;;;;1.37;0.50;;;10.50;99.90;;;;;;10470031;28;20671;-69
2023/01/12 17:32:28;;;;;;;0.60;0.50;;;10.50;99.90;;;;;;10475962;28;20279;-71
2023/01/12 17:37:28;;;;;;;1.90;0.80;;;10.50;99.90;;;;;;10451129;28;20215;-71
2023/01/12 17:47:48;;;;;;;1.50;0.53;;;10.50;99.90;;;;;;10467706;28;20312;-70
2023/01/12 17:52:49;;;;;;;0.90;0.53;;;10.50;99.90;;;;;;10453257;28;20231;-70
2023/01/12 17:57:49;;;;;;;0.40;0.40;;;10.50;99.90;;;;;;10471351;28;20231;-69
2023/01/12 18:02:50;;;;;;;0.80;0.50;;;10.50;99.90;;;;;;10471833;28;20309;-72
2023/01/12 18:07:50;;;;;;;0.97;0.47;;;10.50;99.90;;;;;;10451671;28;20745;-71
2023/01/12 18:12:51;;;;;;;2.70;0.70;;;10.50;99.90;;;;;;10487867;28;20290;-71
2023/01/12 18:17:52;;;;;;;3.67;0.93;;;10.50;99.90;;;;;;10479202;28;20516;-72
2023/01/12 18:22:54;;;;;;;2.20;0.70;;;10.50;99.90;;;;;;10485761;28;20267;-71
2023/01/12 18:27:55;;;;;;;1.70;0.50;;;10.50;99.90;;;;;;10475992;28;20230;-73
2023/01/12 18:32:55;;;;;;;0.87;0.63;;;10.50;99.90;;;;;;10449048;28;20329;-71
2023/01/12 18:37:56;;;;;;;1.53;0.80;;;10.50;99.90;;;;;;10485568;28;20222;-71
2023/01/12 18:42:56;;;;;;;1.80;0.70;;;10.50;99.90;;;;;;10469523;28;20223;-72
2023/01/12 18:53:33;;;;;;;1.80;0.63;;;10.50;99.90;;;;;;10466967;28;20223;-72
2023/01/12 18:58:35;;;;;;;2.07;0.67;;;10.40;99.90;;;;;;10471163;28;20210;-71
2023/01/12 19:03:36;;;;;;;1.33;0.53;;;10.50;99.90;;;;;;10463764;28;20214;-72
2023/01/12 19:19:27;;;;;;;1.80;0.90;;;10.50;99.90;;;;;;10474366;28;20313;-72
2023/01/12 19:29:47;;;;;;;1.77;0.70;;;10.50;99.90;;;;;;10464362;28;20260;-71
2023/01/12 19:34:48;;;;;;;1.03;0.50;;;10.50;99.90;;;;;;10461336;28;20536;-71
2023/01/12 19:39:58;;;;;;;0.87;0.73;;;10.50;99.90;;;;;;10451557;28;20223;-71
2023/01/12 19:44:58;;;;;;;0.60;0.50;;;10.50;99.90;;;;;;10470963;28;20222;-71
2023/01/12 19:50:00;;;;;;;2.00;0.80;;;10.50;99.90;;;;;;10449882;28;20601;-71
2023/01/12 19:55:01;;;;;;;1.73;0.60;;;10.40;99.90;;;;;;10452918;28;20225;-72
2023/01/12 20:00:06;;;;;;;2.00;0.73;;;10.40;99.90;;;;;;10466617;28;20219;-72
2023/01/12 20:05:10;;;;;;;2.27;0.80;;;10.40;99.90;;;;;;10456943;28;20429;-72
2023/01/12 20:10:10;;;;;;;2.20;0.70;;;10.30;99.90;;;;;;10472503;28;20210;-72
2023/01/12 20:15:12;;;;;;;3.10;0.70;;;10.40;99.90;;;;;;10463631;28;20547;-72
2023/01/12 20:20:13;;;;;;;1.70;0.80;;;10.40;99.90;;;;;;10483925;28;20271;-72
2023/01/12 20:25:14;;;;;;;1.93;0.90;;;10.40;99.90;;;;;;10447956;28;20184;-72
2023/01/12 20:30:17;;;;;;;3.23;1.10;;;10.40;99.90;;;;;;10472465;28;20246;-72
2023/01/12 20:35:21;;;;;;;4.63;1.53;;;10.40;99.90;;;;;;10463738;28;20188;-72
2023/01/12 20:40:21;;;;;;;2.43;0.97;;;10.40;99.90;;;;;;10466452;28;20184;-72
2023/01/12 20:45:22;;;;;;;2.90;1.17;;;10.30;99.90;;;;;;10461946;28;20182;-72
2023/01/12 20:50:24;;;;;;;1.67;1.00;;;10.30;99.90;;;;;;10472299;28;20207;-72
2023/01/12 20:55:25;;;;;;;2.03;1.00;;;10.30;99.90;;;;;;10463853;28;20238;-72
2023/01/12 21:00:27;;;;;;;1.40;0.90;;;10.40;99.90;;;;;;10479364;28;20226;-72
2023/01/12 21:05:28;;;;;;;2.20;0.90;;;10.30;99.90;;;;;;10469308;28;20239;-71
2023/01/12 21:10:28;;;;;;;3.17;0.93;;;10.40;99.90;;;;;;10461074;28;20317;-72
2023/01/12 21:15:29;;;;;;;1.47;0.57;;;10.40;99.90;;;;;;10459801;28;20229;-73
2023/01/12 21:20:30;;;;;;;3.57;0.60;;;10.40;99.90;;;;;;10480201;28;20211;-71
2023/01/12 21:25:30;;;;;;;2.47;0.80;;;10.40;99.90;;;;;;10478141;28;20223;-73
2023/01/12 21:30:31;;;;;;;1.87;0.83;;;10.40;99.90;;;;;;10477023;28;20234;-71
2023/01/12 21:35:32;;;;;;;4.30;0.90;;;10.50;99.90;;;;;;10472350;28;20322;-73
2023/01/12 21:40:32;;;;;;;3.00;0.77;;;10.40;99.90;;;;;;10470316;28;20230;-72
2023/01/12 21:45:35;;;;;;;2.30;0.97;;;10.50;99.90;;;;;;10467764;28;20560;-72
2023/01/12 21:50:36;;;;;;;4.40;1.17;;;10.50;99.90;;;;;;10471416;28;20223;-72
2023/01/12 21:55:37;;;;;;;1.20;0.63;;;10.60;99.90;;;;;;10457154;28;20222;-72
2023/01/12 22:00:37;;;;;;;3.47;1.20;;;10.50;99.90;;;;;;10464293;28;20718;-72
2023/01/12 22:05:38;;;;;;;1.80;0.83;;;10.50;99.90;;;;;;10468079;28;20358;-72
2023/01/12 22:10:39;;;;;;;1.17;0.80;;;10.50;99.90;;;;;;10477119;28;20610;-69
2023/01/12 22:15:40;;;;;;;3.90;0.77;;;10.50;99.90;;;;;;10470136;28;20218;-71
2023/01/12 22:20:42;;;;;;;1.07;0.57;;;10.50;99.90;;;;;;10416785;28;20254;-71
2023/01/12 22:25:42;;;;;;;2.40;0.60;;;10.40;99.90;;;;;;10420845;28;20934;-71
2023/01/12 22:30:43;;;;;;;1.97;0.80;;;10.40;99.90;;;;;;10430267;28;20318;-69
2023/01/12 22:35:44;;;;;;;3.60;0.80;;;10.30;99.90;;;;;;10432213;28;20229;-71
2023/01/12 22:40:44;;;;;;;3.23;0.70;;;10.30;99.90;;;;;;10438363;28;20585;-71
2023/01/12 22:45:49;;;;;;;1.70;0.63;;;10.20;99.90;;;;;;10432318;28;20274;-72
2023/01/12 22:50:53;;;;;;;3.20;1.00;;;10.20;99.90;;;;;;10433309;28;20227;-72
2023/01/12 22:55:57;;;;;;;1.77;0.60;;;10.20;99.90;;;;;;10427212;28;20718;-72
2023/01/12 23:01:08;;;;;;;2.07;0.70;;;10.20;99.90;;;;;;10417368;28;20227;-72
2023/01/12 23:06:13;;;;;;;4.70;0.90;;;10.20;99.90;;;;;;10407418;28;20231;-72
2023/01/12 23:11:18;;;;;;;1.77;0.70;;;10.20;99.90;;;;;;10431983;28;20846;-71
2023/01/12 23:16:19;;;;;;;2.87;0.87;;;10.30;99.90;;;;;;10448158;28;20385;-74
2023/01/12 23:21:26;;;;;;;2.63;0.70;;;10.30;99.90;;;;;;10466455;28;20310;-74
2023/01/12 23:26:32;;;;;;;1.43;0.80;;;10.30;99.90;;;;;;10475075;28;20288;-74
2023/01/12 23:31:33;;;;;;;3.87;0.93;;;10.30;99.90;;;;;;10473913;28;20242;-73
2023/01/12 23:36:34;;;;;;;2.73;0.80;;;10.30;99.90;;;;;;10468391;28;20231;-73
2023/01/12 23:41:36;;;;;;;2.63;0.77;;;10.30;99.90;;;;;;10473958;28;20230;-74
2023/01/12 23:46:39;;;;;;;3.23;0.70;;;10.30;99.90;;;;;;10453205;28;20335;-72
2023/01/12 23:51:39;;;;;;;2.93;0.80;;;10.30;99.90;;;;;;10465548;28;20254;-74
2023/01/12 23:56:40;;;;;;;2.67;0.70;;;10.30;99.90;;;;;;10474012;28;20258;-74
